createdAt,value
2019-02-26T00:00:49.602Z,1036.01
2019-02-26T00:01:50.569Z,1036.01
2019-02-26T00:02:50.447Z,1035.99
2019-02-26T00:03:44.604Z,1036
2019-02-26T00:04:44.673Z,1036.04
2019-02-26T00:05:50.221Z,1036.06
2019-02-26T00:06:50.939Z,1036.07
2019-02-26T00:07:51.060Z,1036.06
2019-02-26T00:08:51.134Z,1036.05
2019-02-26T00:09:44.943Z,1036.04
2019-02-26T00:10:46.115Z,1036.03
2019-02-26T00:11:46.413Z,1036.06
2019-02-26T00:12:44.876Z,1036.04
2019-02-26T00:13:44.693Z,1036.06
2019-02-26T00:14:47.895Z,1036.09
2019-02-26T00:15:48.297Z,1036.08
2019-02-26T00:16:48.448Z,1036.06
2019-02-26T00:17:49.018Z,1036.12
2019-02-26T00:18:45.442Z,1036.12
2019-02-26T00:19:45.333Z,1036.14
2019-02-26T00:20:44.623Z,1036.14
2019-02-26T00:21:49.306Z,1036.16
2019-02-26T00:22:44.823Z,1036.2
2019-02-26T00:23:48.756Z,1036.15
2019-02-26T00:24:46.741Z,1036.15
2019-02-26T00:25:44.874Z,1036.14
2019-02-26T00:26:45.321Z,1036.08
2019-02-26T00:27:49.051Z,1036.05
2019-02-26T00:28:45.846Z,1036.03
2019-02-26T00:29:49.232Z,1036.02
2019-02-26T00:30:44.522Z,1036.03
2019-02-26T00:31:48.528Z,1036.04
2019-02-26T00:32:44.999Z,1036.03
2019-02-26T00:33:44.795Z,1036.05
2019-02-26T00:34:44.705Z,1036.05
2019-02-26T00:35:48.487Z,1036.09
2019-02-26T00:36:45.022Z,1036.12
2019-02-26T00:37:48.864Z,1036.11
2019-02-26T00:38:44.592Z,1036.08
2019-02-26T00:39:47.376Z,1036.09
2019-02-26T00:40:44.738Z,1036.09
2019-02-26T00:41:44.619Z,1036.09
2019-02-26T00:42:44.870Z,1036.08
2019-02-26T00:43:44.545Z,1036.07
2019-02-26T00:44:44.547Z,1036.06
2019-02-26T00:45:44.584Z,1036.08
2019-02-26T00:46:44.596Z,1036.11
2019-02-26T00:47:46.388Z,1036.12
2019-02-26T00:48:44.514Z,1036.09
2019-02-26T00:49:49.007Z,1036.06
2019-02-26T00:50:45.572Z,1036.08
2019-02-26T00:51:50.280Z,1036
2019-02-26T00:52:45.435Z,1035.97
2019-02-26T00:53:44.579Z,1035.97
2019-02-26T00:54:45.071Z,1035.97
2019-02-26T00:55:44.850Z,1036.01
2019-02-26T00:56:45.048Z,1035.97
2019-02-26T00:57:45.055Z,1036
2019-02-26T00:58:48.668Z,1036.01
2019-02-26T00:59:48.036Z,1036.04
2019-02-26T01:00:44.545Z,1036.04
2019-02-26T01:01:50.274Z,1036.06
2019-02-26T01:02:44.584Z,1036.04
2019-02-26T01:03:47.597Z,1036.07
2019-02-26T01:04:48.150Z,1036.11
2019-02-26T01:05:45.585Z,1036.09
2019-02-26T01:06:44.812Z,1036.13
2019-02-26T01:07:49.285Z,1036.14
2019-02-26T01:08:47.156Z,1036.12
2019-02-26T01:09:44.461Z,1036.11
2019-02-26T01:10:46.332Z,1036.09
2019-02-26T01:11:47.578Z,1036.05
2019-02-26T01:12:45.365Z,1036.04
2019-02-26T01:13:44.755Z,1036.01
2019-02-26T01:14:48.089Z,1036.02
2019-02-26T01:15:44.528Z,1036.01
2019-02-26T01:16:48.263Z,1035.98
2019-02-26T01:17:44.985Z,1035.99
2019-02-26T01:18:48.905Z,1035.94
2019-02-26T01:19:44.578Z,1035.96
2019-02-26T01:20:50.426Z,1035.96
2019-02-26T01:21:44.466Z,1035.93
2019-02-26T01:22:45.684Z,1035.93
2019-02-26T01:23:44.572Z,1035.89
2019-02-26T01:24:44.460Z,1035.89
2019-02-26T01:25:44.732Z,1035.85
2019-02-26T01:26:44.843Z,1035.83
2019-02-26T01:27:48.674Z,1035.79
2019-02-26T01:28:51.042Z,1035.83
2019-02-26T01:29:51.284Z,1035.78
2019-02-26T01:30:45.344Z,1035.81
2019-02-26T01:31:45.085Z,1035.78
2019-02-26T01:32:44.780Z,1035.74
2019-02-26T01:33:48.487Z,1035.73
2019-02-26T01:34:49.083Z,1035.74
2019-02-26T01:35:44.912Z,1035.74
2019-02-26T01:36:47.616Z,1035.72
2019-02-26T01:37:44.716Z,1035.71
2019-02-26T01:38:48.741Z,1035.73
2019-02-26T01:39:47.747Z,1035.73
2019-02-26T01:40:51.765Z,1035.74
2019-02-26T01:41:48.368Z,1035.77
2019-02-26T01:42:50.174Z,1035.73
2019-02-26T01:43:44.276Z,1035.71
2019-02-26T01:44:44.713Z,1035.71
2019-02-26T01:45:48.511Z,1035.68
2019-02-26T01:46:44.676Z,1035.68
2019-02-26T01:47:48.633Z,1035.69
2019-02-26T01:48:44.409Z,1035.62
2019-02-26T01:49:49.241Z,1035.61
2019-02-26T01:50:44.718Z,1035.67
2019-02-26T01:51:49.650Z,1035.65
2019-02-26T01:52:45.347Z,1035.63
2019-02-26T01:53:49.106Z,1035.64
2019-02-26T01:54:44.836Z,1035.62
2019-02-26T01:55:48.273Z,1035.61
2019-02-26T01:56:45.518Z,1035.64
2019-02-26T01:57:45.046Z,1035.6
2019-02-26T01:58:44.950Z,1035.59
2019-02-26T01:59:44.649Z,1035.58
2019-02-26T02:00:44.436Z,1035.54
2019-02-26T02:01:48.899Z,1035.59
2019-02-26T02:02:44.512Z,1035.55
2019-02-26T02:03:48.271Z,1035.57
2019-02-26T02:04:45.010Z,1035.59
2019-02-26T02:05:47.963Z,1035.58
2019-02-26T02:06:44.534Z,1035.54
2019-02-26T02:07:49.046Z,1035.52
2019-02-26T02:08:48.143Z,1035.5
2019-02-26T02:09:50.550Z,1035.53
2019-02-26T02:10:44.755Z,1035.54
2019-02-26T02:11:44.831Z,1035.55
2019-02-26T02:12:44.387Z,1035.54
2019-02-26T02:13:44.409Z,1035.61
2019-02-26T02:14:44.642Z,1035.54
2019-02-26T02:15:46.659Z,1035.53
2019-02-26T02:16:44.660Z,1035.5
2019-02-26T02:17:44.651Z,1035.44
2019-02-26T02:18:51.181Z,1035.49
2019-02-26T02:19:46.232Z,1035.51
2019-02-26T02:20:44.442Z,1035.54
2019-02-26T02:21:44.596Z,1035.48
2019-02-26T02:22:46.241Z,1035.48
2019-02-26T02:23:48.649Z,1035.47
2019-02-26T02:24:48.170Z,1035.52
2019-02-26T02:25:45.803Z,1035.47
2019-02-26T02:26:50.327Z,1035.55
2019-02-26T02:27:51.725Z,1035.49
2019-02-26T02:28:44.639Z,1035.54
2019-02-26T02:29:48.751Z,1035.57
2019-02-26T02:30:44.557Z,1035.52
2019-02-26T02:31:44.436Z,1035.57
2019-02-26T02:32:52.034Z,1035.55
2019-02-26T02:33:44.560Z,1035.55
2019-02-26T02:34:44.486Z,1035.51
2019-02-26T02:35:44.387Z,1035.53
2019-02-26T02:36:45.252Z,1035.51
2019-02-26T02:37:44.604Z,1035.53
2019-02-26T02:38:44.704Z,1035.53
2019-02-26T02:39:44.918Z,1035.57
2019-02-26T02:40:48.952Z,1035.5
2019-02-26T02:41:48.672Z,1035.52
2019-02-26T02:42:49.086Z,1035.52
2019-02-26T02:43:45.777Z,1035.5
2019-02-26T02:44:49.217Z,1035.52
2019-02-26T02:45:44.521Z,1035.48
2019-02-26T02:46:46.699Z,1035.5
2019-02-26T02:47:44.666Z,1035.47
2019-02-26T02:48:44.779Z,1035.47
2019-02-26T02:49:44.587Z,1035.48
2019-02-26T02:50:44.790Z,1035.47
2019-02-26T02:51:44.335Z,1035.48
2019-02-26T02:52:45.437Z,1035.48
2019-02-26T02:53:48.468Z,1035.49
2019-02-26T02:54:49.003Z,1035.5
2019-02-26T02:55:49.553Z,1035.49
2019-02-26T02:56:44.828Z,1035.5
2019-02-26T02:57:49.856Z,1035.47
2019-02-26T02:58:49.416Z,1035.45
2019-02-26T02:59:45.351Z,1035.41
2019-02-26T03:00:49.391Z,1035.37
2019-02-26T03:01:52.417Z,1035.35
2019-02-26T03:02:49.979Z,1035.35
2019-02-26T03:03:47.618Z,1035.36
2019-02-26T03:04:45.276Z,1035.38
2019-02-26T03:05:46.073Z,1035.38
2019-02-26T03:06:44.693Z,1035.41
2019-02-26T03:07:48.674Z,1035.45
2019-02-26T03:08:47.890Z,1035.47
2019-02-26T03:09:45.998Z,1035.44
2019-02-26T03:10:45.152Z,1035.45
2019-02-26T03:11:49.565Z,1035.42
2019-02-26T03:12:53.765Z,1035.41
2019-02-26T03:13:48.506Z,1035.43
2019-02-26T03:14:44.661Z,1035.43
2019-02-26T03:15:44.402Z,1035.41
2019-02-26T03:16:48.770Z,1035.42
2019-02-26T03:17:44.427Z,1035.4
2019-02-26T03:18:44.465Z,1035.39
2019-02-26T03:19:44.368Z,1035.39
2019-02-26T03:20:44.510Z,1035.37
2019-02-26T03:21:49.166Z,1035.36
2019-02-26T03:22:49.216Z,1035.32
2019-02-26T03:23:45.781Z,1035.36
2019-02-26T03:24:45.190Z,1035.31
2019-02-26T03:25:49.343Z,1035.33
2019-02-26T03:26:44.623Z,1035.32
2019-02-26T03:27:44.638Z,1035.34
2019-02-26T03:28:50.785Z,1035.35
2019-02-26T03:29:49.796Z,1035.32
2019-02-26T03:30:44.916Z,1035.33
2019-02-26T03:31:55.066Z,1035.35
2019-02-26T03:32:50.936Z,1035.31
2019-02-26T03:33:44.487Z,1035.29
2019-02-26T03:34:44.336Z,1035.3
2019-02-26T03:35:44.429Z,1035.33
2019-02-26T03:36:45.967Z,1035.32
2019-02-26T03:37:44.492Z,1035.31
2019-02-26T03:38:50.636Z,1035.33
2019-02-26T03:39:44.403Z,1035.29
2019-02-26T03:40:45.342Z,1035.29
2019-02-26T03:41:48.541Z,1035.27
2019-02-26T03:42:46.520Z,1035.23
2019-02-26T03:43:44.386Z,1035.22
2019-02-26T03:44:47.152Z,1035.22
2019-02-26T03:45:48.234Z,1035.19
2019-02-26T03:46:45.110Z,1035.16
2019-02-26T03:47:44.250Z,1035.15
2019-02-26T03:48:44.763Z,1035.19
2019-02-26T03:49:45.132Z,1035.16
2019-02-26T03:50:44.830Z,1035.16
2019-02-26T03:51:44.571Z,1035.15
2019-02-26T03:52:44.587Z,1035.09
2019-02-26T03:53:44.393Z,1035.11
2019-02-26T03:54:48.641Z,1035.1
2019-02-26T03:55:44.701Z,1035.08
2019-02-26T03:56:44.507Z,1035.08
2019-02-26T03:57:50.470Z,1035.1
2019-02-26T03:58:44.419Z,1035.09
2019-02-26T03:59:44.357Z,1035.09
2019-02-26T04:00:47.048Z,1035.11
2019-02-26T04:01:44.432Z,1035.1
2019-02-26T04:02:51.045Z,1035.03
2019-02-26T04:03:45.122Z,1035.06
2019-02-26T04:04:51.784Z,1035.03
2019-02-26T04:05:44.669Z,1035.05
2019-02-26T04:06:47.215Z,1035.02
2019-02-26T04:07:44.883Z,1035.04
2019-02-26T04:08:48.513Z,1035.07
2019-02-26T04:09:49.872Z,1035.1
2019-02-26T04:10:49.460Z,1035.1
2019-02-26T04:11:50.846Z,1035.1
2019-02-26T04:12:48.597Z,1035.11
2019-02-26T04:13:48.764Z,1035.17
2019-02-26T04:14:44.411Z,1035.1
2019-02-26T04:15:44.289Z,1035.07
2019-02-26T04:16:44.191Z,1035.07
2019-02-26T04:17:44.349Z,1035.03
2019-02-26T04:18:44.458Z,1035.01
2019-02-26T04:19:44.765Z,1034.99
2019-02-26T04:20:46.056Z,1035.04
2019-02-26T04:21:44.289Z,1035
2019-02-26T04:22:50.668Z,1035.01
2019-02-26T04:23:46.754Z,1035.01
2019-02-26T04:24:44.192Z,1035.03
2019-02-26T04:25:44.292Z,1035.02
2019-02-26T04:26:44.910Z,1035.02
2019-02-26T04:27:44.296Z,1035
2019-02-26T04:28:47.509Z,1034.99
2019-02-26T04:29:49.421Z,1034.96
2019-02-26T04:30:49.674Z,1034.92
2019-02-26T04:31:48.832Z,1034.92
2019-02-26T04:32:48.807Z,1034.9
2019-02-26T04:33:44.184Z,1034.92
2019-02-26T04:34:44.310Z,1034.89
2019-02-26T04:35:50.106Z,1034.92
2019-02-26T04:36:47.185Z,1034.89
2019-02-26T04:37:44.465Z,1034.85
2019-02-26T04:38:50.260Z,1034.85
2019-02-26T04:39:47.784Z,1034.85
2019-02-26T04:40:44.237Z,1034.85
2019-02-26T04:41:44.225Z,1034.86
2019-02-26T04:42:46.197Z,1034.84
2019-02-26T04:43:44.200Z,1034.82
2019-02-26T04:44:52.331Z,1034.85
2019-02-26T04:45:44.316Z,1034.85
2019-02-26T04:46:44.348Z,1034.82
2019-02-26T04:47:51.013Z,1034.85
2019-02-26T04:48:44.449Z,1034.85
2019-02-26T04:49:44.654Z,1034.87
2019-02-26T04:50:44.821Z,1034.88
2019-02-26T04:51:48.323Z,1034.87
2019-02-26T04:52:44.253Z,1034.87
2019-02-26T04:53:44.616Z,1034.86
2019-02-26T04:54:44.587Z,1034.87
2019-02-26T04:55:45.057Z,1034.86
2019-02-26T04:56:47.930Z,1034.88
2019-02-26T04:57:48.983Z,1034.85
2019-02-26T04:58:47.775Z,1034.87
2019-02-26T04:59:44.401Z,1034.92
2019-02-26T05:00:45.458Z,1034.89
2019-02-26T05:01:49.137Z,1034.87
2019-02-26T05:02:44.162Z,1034.84
2019-02-26T05:03:44.184Z,1034.84
2019-02-26T05:04:46.026Z,1034.87
2019-02-26T05:05:44.158Z,1034.83
2019-02-26T05:06:44.449Z,1034.87
2019-02-26T05:07:49.837Z,1034.85
2019-02-26T05:08:44.465Z,1034.83
2019-02-26T05:09:51.175Z,1034.84
2019-02-26T05:10:48.596Z,1034.8
2019-02-26T05:11:44.253Z,1034.84
2019-02-26T05:12:44.221Z,1034.83
2019-02-26T05:13:45.022Z,1034.8
2019-02-26T05:14:44.237Z,1034.81
2019-02-26T05:15:44.443Z,1034.87
2019-02-26T05:16:44.136Z,1034.87
2019-02-26T05:17:44.327Z,1034.89
2019-02-26T05:18:49.439Z,1034.92
2019-02-26T05:19:49.293Z,1034.91
2019-02-26T05:20:48.614Z,1034.9
2019-02-26T05:21:45.983Z,1034.9
2019-02-26T05:22:44.293Z,1034.84
2019-02-26T05:23:49.405Z,1034.89
2019-02-26T05:24:50.231Z,1034.9
2019-02-26T05:25:45.049Z,1034.87
2019-02-26T05:26:44.337Z,1034.84
2019-02-26T05:27:48.586Z,1034.87
2019-02-26T05:28:49.036Z,1034.82
2019-02-26T05:29:49.002Z,1034.83
2019-02-26T05:30:50.968Z,1034.85
2019-02-26T05:31:44.236Z,1034.88
2019-02-26T05:32:44.253Z,1034.86
2019-02-26T05:33:49.049Z,1034.86
2019-02-26T05:34:50.236Z,1034.83
2019-02-26T05:35:48.958Z,1034.82
2019-02-26T05:36:46.534Z,1034.81
2019-02-26T05:37:44.349Z,1034.78
2019-02-26T05:38:44.355Z,1034.75
2019-02-26T05:39:49.447Z,1034.74
2019-02-26T05:40:48.053Z,1034.77
2019-02-26T05:41:45.947Z,1034.83
2019-02-26T05:42:44.593Z,1034.82
2019-02-26T05:43:52.164Z,1034.86
2019-02-26T05:44:44.395Z,1034.82
2019-02-26T05:45:44.169Z,1034.84
2019-02-26T05:46:50.058Z,1034.88
2019-02-26T05:47:50.615Z,1034.88
2019-02-26T05:48:48.458Z,1034.89
2019-02-26T05:49:46.052Z,1034.87
2019-02-26T05:50:44.932Z,1034.89
2019-02-26T05:51:45.954Z,1034.91
2019-02-26T05:52:44.192Z,1034.9
2019-02-26T05:53:44.567Z,1034.91
2019-02-26T05:54:44.167Z,1034.91
2019-02-26T05:55:50.539Z,1034.93
2019-02-26T05:56:49.976Z,1034.94
2019-02-26T05:57:44.382Z,1034.96
2019-02-26T05:58:47.146Z,1034.98
2019-02-26T05:59:44.146Z,1035.01
2019-02-26T06:00:44.508Z,1035.05
2019-02-26T06:01:49.245Z,1035.06
2019-02-26T06:02:50.840Z,1035.05
2019-02-26T06:03:49.845Z,1035.04
2019-02-26T06:04:46.943Z,1035.08
2019-02-26T06:05:51.334Z,1035.07
2019-02-26T06:06:44.336Z,1035.14
2019-02-26T06:07:44.342Z,1035.15
2019-02-26T06:08:44.355Z,1035.19
2019-02-26T06:09:48.088Z,1035.23
2019-02-26T06:10:44.467Z,1035.22
2019-02-26T06:11:50.049Z,1035.29
2019-02-26T06:12:46.829Z,1035.26
2019-02-26T06:13:44.335Z,1035.26
2019-02-26T06:14:44.288Z,1035.27
2019-02-26T06:15:44.176Z,1035.26
2019-02-26T06:16:50.256Z,1035.31
2019-02-26T06:17:48.199Z,1035.3
2019-02-26T06:18:48.954Z,1035.26
2019-02-26T06:19:45.204Z,1035.26
2019-02-26T06:20:45.914Z,1035.31
2019-02-26T06:21:49.763Z,1035.28
2019-02-26T06:22:44.924Z,1035.33
2019-02-26T06:23:44.172Z,1035.26
2019-02-26T06:24:44.250Z,1035.25
2019-02-26T06:25:44.134Z,1035.22
2019-02-26T06:26:45.682Z,1035.21
2019-02-26T06:27:44.588Z,1035.24
2019-02-26T06:28:48.404Z,1035.24
2019-02-26T06:29:44.387Z,1035.24
2019-02-26T06:30:44.930Z,1035.26
2019-02-26T06:31:46.902Z,1035.32
2019-02-26T06:32:44.977Z,1035.31
2019-02-26T06:33:47.953Z,1035.38
2019-02-26T06:34:43.864Z,1035.4
2019-02-26T06:35:43.870Z,1035.39
2019-02-26T06:36:46.967Z,1035.41
2019-02-26T06:37:43.858Z,1035.39
2019-02-26T06:38:43.844Z,1035.36
2019-02-26T06:39:44.189Z,1035.41
2019-02-26T06:40:49.003Z,1035.38
2019-02-26T06:41:47.202Z,1035.41
2019-02-26T06:42:44.107Z,1035.45
2019-02-26T06:43:50.266Z,1035.41
2019-02-26T06:44:48.957Z,1035.41
2019-02-26T06:45:47.766Z,1035.42
2019-02-26T06:46:44.123Z,1035.46
2019-02-26T06:47:48.382Z,1035.47
2019-02-26T06:48:44.312Z,1035.46
2019-02-26T06:49:47.997Z,1035.46
2019-02-26T06:50:44.174Z,1035.44
2019-02-26T06:51:47.268Z,1035.46
2019-02-26T06:52:48.402Z,1035.42
2019-02-26T06:53:49.731Z,1035.48
2019-02-26T06:54:53.020Z,1035.46
2019-02-26T06:55:44.394Z,1035.53
2019-02-26T06:56:48.046Z,1035.57
2019-02-26T06:57:50.567Z,1035.59
2019-02-26T06:58:47.386Z,1035.69
2019-02-26T06:59:43.970Z,1035.72
2019-02-26T07:00:48.075Z,1035.76
2019-02-26T07:01:43.985Z,1035.77
2019-02-26T07:02:46.429Z,1035.78
2019-02-26T07:03:44.077Z,1035.75
2019-02-26T07:04:44.098Z,1035.75
2019-02-26T07:05:46.651Z,1035.75
2019-02-26T07:06:44.100Z,1035.77
2019-02-26T07:07:45.824Z,1035.76
2019-02-26T07:08:49.309Z,1035.8
2019-02-26T07:09:44.242Z,1035.82
2019-02-26T07:10:44.351Z,1035.84
2019-02-26T07:11:44.773Z,1035.86
2019-02-26T07:12:48.238Z,1035.82
2019-02-26T07:13:46.578Z,1035.8
2019-02-26T07:14:48.906Z,1035.81
2019-02-26T07:15:45.997Z,1035.88
2019-02-26T07:16:44.183Z,1035.85
2019-02-26T07:17:46.410Z,1035.89
2019-02-26T07:18:44.018Z,1035.87
2019-02-26T07:19:44.921Z,1035.88
2019-02-26T07:20:50.436Z,1035.82
2019-02-26T07:21:47.959Z,1035.89
2019-02-26T07:22:51.058Z,1035.87
2019-02-26T07:23:43.941Z,1035.89
2019-02-26T07:24:48.684Z,1035.87
2019-02-26T07:25:44.304Z,1035.88
2019-02-26T07:26:48.290Z,1035.88
2019-02-26T07:27:44.437Z,1035.86
2019-02-26T07:28:46.396Z,1035.88
2019-02-26T07:29:49.739Z,1035.86
2019-02-26T07:30:47.102Z,1035.87
2019-02-26T07:31:44.290Z,1035.83
2019-02-26T07:32:48.321Z,1035.83
2019-02-26T07:33:44.196Z,1035.85
2019-02-26T07:34:47.772Z,1035.84
2019-02-26T07:35:44.389Z,1035.81
2019-02-26T07:36:49.693Z,1035.81
2019-02-26T07:37:44.099Z,1035.77
2019-02-26T07:38:51.409Z,1035.78
2019-02-26T07:39:47.321Z,1035.76
2019-02-26T07:40:44.653Z,1035.72
2019-02-26T07:41:47.059Z,1035.71
2019-02-26T07:42:49.157Z,1035.72
2019-02-26T07:43:49.265Z,1035.71
2019-02-26T07:44:44.253Z,1035.71
2019-02-26T07:45:44.491Z,1035.72
2019-02-26T07:46:45.785Z,1035.69
2019-02-26T07:47:45.409Z,1035.67
2019-02-26T07:48:51.419Z,1035.67
2019-02-26T07:49:44.779Z,1035.66
2019-02-26T07:50:50.370Z,1035.66
2019-02-26T07:51:44.941Z,1035.63
2019-02-26T07:52:49.621Z,1035.69
2019-02-26T07:53:50.662Z,1035.7
2019-02-26T07:54:49.044Z,1035.71
2019-02-26T07:55:44.286Z,1035.73
2019-02-26T07:56:43.888Z,1035.74
2019-02-26T07:57:48.110Z,1035.73
2019-02-26T07:58:44.363Z,1035.75
2019-02-26T07:59:47.559Z,1035.73
2019-02-26T08:00:50.208Z,1035.75
2019-02-26T08:01:49.189Z,1035.73
2019-02-26T08:02:43.896Z,1035.76
2019-02-26T08:03:48.268Z,1035.78
2019-02-26T08:04:43.995Z,1035.77
2019-02-26T08:05:44.117Z,1035.79
2019-02-26T08:06:43.865Z,1035.8
2019-02-26T08:07:48.096Z,1035.77
2019-02-26T08:08:48.500Z,1035.73
2019-02-26T08:09:44.124Z,1035.73
2019-02-26T08:10:48.709Z,1035.73
2019-02-26T08:11:49.086Z,1035.73
2019-02-26T08:12:44.121Z,1035.7
2019-02-26T08:13:44.169Z,1035.74
2019-02-26T08:14:47.738Z,1035.7
2019-02-26T08:15:44.371Z,1035.71
2019-02-26T08:16:44.072Z,1035.72
2019-02-26T08:17:50.355Z,1035.68
2019-02-26T08:18:44.094Z,1035.67
2019-02-26T08:19:49.249Z,1035.61
2019-02-26T08:20:43.980Z,1035.58
2019-02-26T08:21:47.730Z,1035.61
2019-02-26T08:22:43.891Z,1035.6
2019-02-26T08:23:48.309Z,1035.59
2019-02-26T08:24:47.862Z,1035.6
2019-02-26T08:25:44.006Z,1035.55
2019-02-26T08:26:47.349Z,1035.54
2019-02-26T08:27:44.206Z,1035.51
2019-02-26T08:28:47.732Z,1035.55
2019-02-26T08:29:43.965Z,1035.53
2019-02-26T08:30:47.829Z,1035.53
2019-02-26T08:31:47.392Z,1035.53
2019-02-26T08:32:51.192Z,1035.56
2019-02-26T08:33:49.013Z,1035.57
2019-02-26T08:34:45.698Z,1035.59
2019-02-26T08:35:44.608Z,1035.58
2019-02-26T08:36:46.965Z,1035.56
2019-02-26T08:37:44.024Z,1035.54
2019-02-26T08:38:45.689Z,1035.55
2019-02-26T08:39:44.124Z,1035.51
2019-02-26T08:40:44.148Z,1035.47
2019-02-26T08:41:44.442Z,1035.49
2019-02-26T08:42:44.358Z,1035.48
2019-02-26T08:43:49.077Z,1035.45
2019-02-26T08:44:48.637Z,1035.45
2019-02-26T08:45:45.685Z,1035.47
2019-02-26T08:46:48.639Z,1035.43
2019-02-26T08:47:43.972Z,1035.43
2019-02-26T08:48:48.812Z,1035.42
2019-02-26T08:49:47.600Z,1035.39
2019-02-26T08:50:46.510Z,1035.37
2019-02-26T08:51:44.083Z,1035.37
2019-02-26T08:52:49.450Z,1035.39
2019-02-26T08:53:47.451Z,1035.38
2019-02-26T08:54:44.022Z,1035.37
2019-02-26T08:55:44.016Z,1035.38
2019-02-26T08:56:43.911Z,1035.37
2019-02-26T08:57:44.549Z,1035.38
2019-02-26T08:58:45.541Z,1035.33
2019-02-26T08:59:47.258Z,1035.36
2019-02-26T09:00:44.105Z,1035.31
2019-02-26T09:01:44.269Z,1035.35
2019-02-26T09:02:48.860Z,1035.3
2019-02-26T09:03:43.974Z,1035.29
2019-02-26T09:04:47.863Z,1035.29
2019-02-26T09:05:44.190Z,1035.31
2019-02-26T09:06:43.945Z,1035.38
2019-02-26T09:07:48.120Z,1035.36
2019-02-26T09:08:44.650Z,1035.35
2019-02-26T09:09:48.029Z,1035.37
2019-02-26T09:10:48.632Z,1035.36
2019-02-26T09:11:45.055Z,1035.36
2019-02-26T09:12:48.628Z,1035.37
2019-02-26T09:13:44.109Z,1035.33
2019-02-26T09:14:48.165Z,1035.31
2019-02-26T09:15:44.479Z,1035.28
2019-02-26T09:16:51.748Z,1035.33
2019-02-26T09:17:44.650Z,1035.3
2019-02-26T09:18:43.601Z,1035.3
2019-02-26T09:19:44.212Z,1035.28
2019-02-26T09:20:45.631Z,1035.26
2019-02-26T09:21:49.750Z,1035.28
2019-02-26T09:22:50.328Z,1035.22
2019-02-26T09:23:49.872Z,1035.22
2019-02-26T09:24:44.115Z,1035.23
2019-02-26T09:25:49.605Z,1035.23
2019-02-26T09:26:44.128Z,1035.26
2019-02-26T09:27:44.246Z,1035.3
2019-02-26T09:28:49.544Z,1035.3
2019-02-26T09:29:51.392Z,1035.34
2019-02-26T09:30:44.055Z,1035.33
2019-02-26T09:31:45.604Z,1035.35
2019-02-26T09:32:45.026Z,1035.36
2019-02-26T09:33:45.669Z,1035.39
2019-02-26T09:34:43.987Z,1035.37
2019-02-26T09:35:47.350Z,1035.39
2019-02-26T09:36:51.066Z,1035.38
2019-02-26T09:37:47.404Z,1035.38
2019-02-26T09:38:49.465Z,1035.35
2019-02-26T09:39:44.011Z,1035.34
2019-02-26T09:40:47.654Z,1035.31
2019-02-26T09:41:45.722Z,1035.26
2019-02-26T09:42:51.335Z,1035.27
2019-02-26T09:43:48.100Z,1035.24
2019-02-26T09:44:44.821Z,1035.25
2019-02-26T09:45:47.777Z,1035.22
2019-02-26T09:46:44.221Z,1035.22
2019-02-26T09:47:47.372Z,1035.22
2019-02-26T09:48:46.204Z,1035.18
2019-02-26T09:49:43.742Z,1035.16
2019-02-26T09:50:48.662Z,1035.15
2019-02-26T09:51:44.008Z,1035.16
2019-02-26T09:52:47.765Z,1035.15
2019-02-26T09:53:44.236Z,1035.13
2019-02-26T09:54:48.839Z,1035.11
2019-02-26T09:55:44.022Z,1035.1
2019-02-26T09:56:44.021Z,1035.13
2019-02-26T09:57:44.233Z,1035.12
2019-02-26T09:58:48.787Z,1035.13
2019-02-26T09:59:43.696Z,1035.12
2019-02-26T10:00:50.537Z,1035.08
2019-02-26T10:01:43.727Z,1035.06
2019-02-26T10:02:47.078Z,1035.07
2019-02-26T10:03:43.706Z,1035.12
2019-02-26T10:04:47.620Z,1035.06
2019-02-26T10:05:48.257Z,1035.1
2019-02-26T10:06:47.500Z,1035.06
2019-02-26T10:07:44.096Z,1035.03
2019-02-26T10:08:48.447Z,1035.08
2019-02-26T10:09:48.491Z,1035.07
2019-02-26T10:10:45.308Z,1035.05
2019-02-26T10:11:49.146Z,1035.03
2019-02-26T10:12:44.049Z,1035.01
2019-02-26T10:13:50.790Z,1034.97
2019-02-26T10:14:43.874Z,1034.96
2019-02-26T10:15:44.935Z,1034.96
2019-02-26T10:16:46.926Z,1034.94
2019-02-26T10:17:45.313Z,1034.94
2019-02-26T10:18:47.314Z,1034.92
2019-02-26T10:19:43.763Z,1034.88
2019-02-26T10:20:48.093Z,1034.86
2019-02-26T10:21:45.069Z,1034.82
2019-02-26T10:22:47.229Z,1034.81
2019-02-26T10:23:51.315Z,1034.8
2019-02-26T10:24:45.523Z,1034.79
2019-02-26T10:25:45.362Z,1034.81
2019-02-26T10:26:45.515Z,1034.86
2019-02-26T10:27:47.433Z,1034.85
2019-02-26T10:28:52.912Z,1034.84
2019-02-26T10:29:47.116Z,1034.83
2019-02-26T10:30:44.148Z,1034.87
2019-02-26T10:31:43.665Z,1034.86
2019-02-26T10:32:47.067Z,1034.81
2019-02-26T10:33:47.919Z,1034.79
2019-02-26T10:34:43.944Z,1034.85
2019-02-26T10:35:47.920Z,1034.81
2019-02-26T10:36:49.229Z,1034.84
2019-02-26T10:37:44.091Z,1034.79
2019-02-26T10:38:43.939Z,1034.78
2019-02-26T10:39:49.364Z,1034.82
2019-02-26T10:40:56.112Z,1034.79
2019-02-26T10:41:46.842Z,1034.81
2019-02-26T10:42:43.659Z,1034.84
2019-02-26T10:43:44.005Z,1034.78
2019-02-26T10:44:43.992Z,1034.77
2019-02-26T10:45:50.023Z,1034.81
2019-02-26T10:46:44.623Z,1034.83
2019-02-26T10:47:44.267Z,1034.83
2019-02-26T10:48:48.475Z,1034.8
2019-02-26T10:49:49.001Z,1034.78
2019-02-26T10:50:51.629Z,1034.78
2019-02-26T10:51:44.028Z,1034.78
2019-02-26T10:52:43.681Z,1034.8
2019-02-26T10:53:44.097Z,1034.76
2019-02-26T10:54:46.688Z,1034.72
2019-02-26T10:55:43.727Z,1034.74
2019-02-26T10:56:45.025Z,1034.71
2019-02-26T10:57:44.027Z,1034.7
2019-02-26T10:58:45.479Z,1034.72
2019-02-26T10:59:45.548Z,1034.72
2019-02-26T11:00:44.250Z,1034.69
2019-02-26T11:01:43.986Z,1034.7
2019-02-26T11:02:48.336Z,1034.69
2019-02-26T11:03:48.813Z,1034.68
2019-02-26T11:04:48.932Z,1034.69
2019-02-26T11:05:48.522Z,1034.68
2019-02-26T11:06:46.911Z,1034.66
2019-02-26T11:07:43.727Z,1034.67
2019-02-26T11:08:43.975Z,1034.64
2019-02-26T11:09:47.770Z,1034.67
2019-02-26T11:10:49.289Z,1034.66
2019-02-26T11:11:43.706Z,1034.68
2019-02-26T11:12:47.711Z,1034.65
2019-02-26T11:13:50.507Z,1034.68
2019-02-26T11:14:44.401Z,1034.67
2019-02-26T11:15:43.951Z,1034.69
2019-02-26T11:16:43.709Z,1034.66
2019-02-26T11:17:47.531Z,1034.68
2019-02-26T11:18:47.602Z,1034.67
2019-02-26T11:19:43.746Z,1034.68
2019-02-26T11:20:48.204Z,1034.67
2019-02-26T11:21:43.576Z,1034.69
2019-02-26T11:22:47.096Z,1034.67
2019-02-26T11:23:46.517Z,1034.65
2019-02-26T11:24:44.004Z,1034.66
2019-02-26T11:25:43.628Z,1034.67
2019-02-26T11:26:44.434Z,1034.65
2019-02-26T11:27:48.395Z,1034.67
2019-02-26T11:28:47.901Z,1034.64
2019-02-26T11:29:43.754Z,1034.63
2019-02-26T11:30:46.529Z,1034.62
2019-02-26T11:31:47.650Z,1034.6
2019-02-26T11:32:45.297Z,1034.59
2019-02-26T11:33:43.950Z,1034.58
2019-02-26T11:34:43.875Z,1034.57
2019-02-26T11:35:48.539Z,1034.55
2019-02-26T11:36:43.886Z,1034.53
2019-02-26T11:37:47.909Z,1034.51
2019-02-26T11:38:47.097Z,1034.51
2019-02-26T11:39:43.600Z,1034.51
2019-02-26T11:40:43.583Z,1034.46
2019-02-26T11:41:43.651Z,1034.45
2019-02-26T11:42:49.274Z,1034.45
2019-02-26T11:43:43.980Z,1034.45
2019-02-26T11:44:43.703Z,1034.45
2019-02-26T11:45:45.423Z,1034.42
2019-02-26T11:46:48.631Z,1034.43
2019-02-26T11:47:43.956Z,1034.37
2019-02-26T11:48:47.574Z,1034.34
2019-02-26T11:49:46.736Z,1034.34
2019-02-26T11:50:45.205Z,1034.3
2019-02-26T11:51:43.879Z,1034.3
2019-02-26T11:52:43.965Z,1034.28
2019-02-26T11:53:46.361Z,1034.25
2019-02-26T11:54:44.759Z,1034.22
2019-02-26T11:55:45.411Z,1034.2
2019-02-26T11:56:47.288Z,1034.2
2019-02-26T11:57:49.716Z,1034.18
2019-02-26T11:58:43.817Z,1034.14
2019-02-26T11:59:43.576Z,1034.14
2019-02-26T12:00:49.701Z,1034.12
2019-02-26T12:01:43.594Z,1034.14
2019-02-26T12:02:43.986Z,1034.12
2019-02-26T12:03:44.115Z,1034.11
2019-02-26T12:04:43.865Z,1034.09
2019-02-26T12:05:44.520Z,1034.05
2019-02-26T12:06:43.682Z,1034.03
2019-02-26T12:07:43.538Z,1034.05